Time;durP1;ratioP1;P1;durP2;ratioP2;P2;SDS_P1;SDS_P2;PMS_P1;PMS_P2;Temp;Humidity;BMP_temperature;BMP_pressure;BME280_temperature;BME280_humidity;BME280_pressure;Samples;Min_cycle;Max_cycle;Signal;HPM_P1;HPM_P2
2023/01/13 00:00:58;;;;;;;16.55;2.20;;;10.80;99.90;;;;;;5034584;28;20095;-74
2023/01/13 00:03:26;;;;;;;17.08;2.30;;;10.80;99.90;;;;;;5034546;28;20458;-75
2023/01/13 00:05:52;;;;;;;17.40;1.88;;;10.70;99.90;;;;;;5018184;28;20108;-75
2023/01/13 00:08:17;;;;;;;14.13;2.00;;;10.70;99.90;;;;;;5017681;28;20064;-75
2023/01/13 00:10:47;;;;;;;16.23;2.55;;;10.70;99.90;;;;;;5001644;28;20509;-75
2023/01/13 00:13:14;;;;;;;20.05;2.35;;;10.70;99.90;;;;;;5035392;28;20022;-75
2023/01/13 00:15:39;;;;;;;21.90;2.70;;;10.70;99.90;;;;;;5035536;28;20041;-75
2023/01/13 00:18:05;;;;;;;26.75;3.00;;;10.60;99.90;;;;;;5033837;28;20426;-75
2023/01/13 00:20:31;;;;;;;25.50;3.47;;;10.60;99.90;;;;;;5035347;28;20029;-75
2023/01/13 00:22:58;;;;;;;20.88;3.13;;;10.60;99.90;;;;;;5002015;28;20454;-75
2023/01/13 00:25:24;;;;;;;22.65;2.47;;;10.50;99.90;;;;;;5035136;28;20026;-75
2023/01/13 00:27:50;;;;;;;28.17;4.32;;;10.50;99.90;;;;;;5035384;28;20057;-75
2023/01/13 00:30:16;;;;;;;23.80;2.88;;;10.40;99.90;;;;;;5034000;28;20085;-75
2023/01/13 00:32:41;;;;;;;24.67;3.58;;;10.40;99.90;;;;;;5033870;28;20045;-75
2023/01/13 00:35:07;;;;;;;21.58;2.80;;;10.30;99.90;;;;;;5000914;28;20048;-75
2023/01/13 00:37:38;;;;;;;24.75;3.08;;;10.30;99.90;;;;;;5034975;28;20073;-75
2023/01/13 00:40:04;;;;;;;25.02;2.97;;;10.30;99.90;;;;;;5033451;28;20025;-75
2023/01/13 00:45:14;;;;;;;25.95;3.28;;;10.20;99.90;;;;;;5033893;28;20049;-74
2023/01/13 00:47:40;;;;;;;22.63;3.10;;;10.20;99.90;;;;;;5034491;28;20463;-74
2023/01/13 00:50:06;;;;;;;22.08;3.20;;;10.20;99.90;;;;;;5033315;28;20029;-74
2023/01/13 00:52:32;;;;;;;43.63;4.35;;;10.10;99.90;;;;;;5033351;28;20034;-75
2023/01/13 00:54:58;;;;;;;24.38;3.67;;;10.10;99.90;;;;;;5034874;28;20038;-74
2023/01/13 00:57:23;;;;;;;27.27;3.40;;;10.10;99.90;;;;;;5033529;28;20385;-75
2023/01/13 00:59:49;;;;;;;24.05;2.90;;;10.10;99.90;;;;;;5033364;28;20067;-74
2023/01/13 01:02:14;;;;;;;20.33;2.42;;;10.10;99.90;;;;;;5016793;28;20029;-74
2023/01/13 01:04:40;;;;;;;21.55;2.90;;;10.10;99.90;;;;;;5033197;28;20465;-74
2023/01/13 01:07:06;;;;;;;27.33;2.88;;;10.10;99.90;;;;;;5033443;28;20053;-75
2023/01/13 01:09:33;;;;;;;24.88;3.80;;;10.00;99.90;;;;;;5033060;28;20370;-75
2023/01/13 01:11:59;;;;;;;29.77;3.53;;;10.00;99.90;;;;;;5034522;28;20025;-74
2023/01/13 01:14:26;;;;;;;29.63;3.40;;;10.00;99.90;;;;;;5034429;28;20033;-74
2023/01/13 01:16:52;;;;;;;27.40;3.20;;;9.90;99.90;;;;;;5016383;28;20040;-74
2023/01/13 01:19:18;;;;;;;23.60;3.50;;;9.90;99.90;;;;;;5034219;28;20030;-74
2023/01/13 01:21:43;;;;;;;21.95;3.40;;;9.90;99.90;;;;;;5034308;28;20382;-75
2023/01/13 01:24:09;;;;;;;24.10;3.38;;;9.90;99.90;;;;;;5034274;28;20029;-74
2023/01/13 01:26:35;;;;;;;29.27;3.38;;;9.90;99.90;;;;;;5032664;28;20230;-74
2023/01/13 01:29:01;;;;;;;27.48;3.50;;;9.90;99.90;;;;;;5032607;28;20033;-74
2023/01/13 01:31:30;;;;;;;25.35;3.00;;;9.90;99.90;;;;;;5033895;28;20022;-74
2023/01/13 01:33:56;;;;;;;30.10;3.53;;;9.90;99.90;;;;;;5033783;28;20026;-74
2023/01/13 01:36:25;;;;;;;26.10;3.30;;;9.90;99.90;;;;;;5033340;28;20084;-74
2023/01/13 01:38:51;;;;;;;34.00;3.50;;;9.80;99.90;;;;;;5033731;28;20021;-74
2023/01/13 01:41:20;;;;;;;29.17;4.65;;;9.80;99.90;;;;;;5033023;28;20033;-74
2023/01/13 01:43:58;;;;;;;24.95;4.35;;;9.80;99.90;;;;;;5032669;28;20033;-74
2023/01/13 01:46:44;;;;;;;32.75;4.38;;;9.80;99.90;;;;;;5032981;28;20025;-74
2023/01/13 01:49:22;;;;;;;32.45;4.70;;;9.80;99.90;;;;;;5033764;28;20038;-75
2023/01/13 01:52:07;;;;;;;30.10;4.07;;;9.80;99.90;;;;;;5032869;28;20053;-74
2023/01/13 01:54:42;;;;;;;26.63;3.72;;;9.80;99.90;;;;;;5033209;28;20083;-74
2023/01/13 01:57:12;;;;;;;28.45;3.92;;;9.80;99.90;;;;;;5032454;28;20025;-74
2023/01/13 01:59:38;;;;;;;30.27;4.47;;;9.80;99.90;;;;;;5033888;28;20033;-75
2023/01/13 02:02:04;;;;;;;25.70;3.58;;;9.80;99.90;;;;;;5032252;28;20540;-74
2023/01/13 02:04:35;;;;;;;35.75;3.75;;;9.80;99.90;;;;;;5033557;28;20038;-74
2023/01/13 02:07:02;;;;;;;28.73;4.15;;;9.80;99.90;;;;;;5032156;28;20029;-74
2023/01/13 02:09:29;;;;;;;27.50;4.18;;;9.80;99.90;;;;;;5033494;28;20037;-74
2023/01/13 02:14:40;;;;;;;34.38;4.00;;;9.70;99.90;;;;;;5033506;28;20413;-74
2023/01/13 02:17:21;;;;;;;36.58;4.00;;;9.70;99.90;;;;;;5033121;28;20117;-74
2023/01/13 02:20:08;;;;;;;29.92;4.57;;;9.70;99.90;;;;;;5033650;28;20045;-74
2023/01/13 02:23:04;;;;;;;26.85;3.88;;;9.60;99.90;;;;;;5032225;28;20030;-75
2023/01/13 02:25:43;;;;;;;29.08;4.30;;;9.60;99.90;;;;;;5032412;28;20466;-74
2023/01/13 02:31:40;;;;;;;32.45;4.18;;;9.60;99.90;;;;;;5033622;28;20025;-74
2023/01/13 02:31:42;;;;;;;35.63;3.67;;;9.50;99.90;;;;;;5032527;28;20030;-74
2023/01/13 02:34:29;;;;;;;29.70;3.65;;;9.50;99.90;;;;;;5033187;28;20034;-74
2023/01/13 02:37:23;;;;;;;34.85;3.75;;;9.50;99.90;;;;;;5032083;28;20050;-74
2023/01/13 02:39:59;;;;;;;26.70;3.50;;;9.50;99.90;;;;;;5032935;28;20040;-74
2023/01/13 02:45:27;;;;;;;32.63;4.13;;;9.50;99.90;;;;;;5033222;28;20534;-74
2023/01/13 02:47:55;;;;;;;35.03;4.47;;;9.50;99.90;;;;;;5031809;28;20033;-74
2023/01/13 02:50:34;;;;;;;31.48;4.50;;;9.50;99.90;;;;;;5032653;28;20120;-75
2023/01/13 02:53:19;;;;;;;28.65;3.45;;;9.50;99.90;;;;;;5032788;28;20110;-75
2023/01/13 02:55:51;;;;;;;25.33;4.30;;;9.50;99.90;;;;;;5033026;28;20030;-75
2023/01/13 02:58:21;;;;;;;29.33;3.95;;;9.50;99.90;;;;;;5033414;28;20034;-75
2023/01/13 03:00:48;;;;;;;31.75;4.78;;;9.50;99.90;;;;;;5033676;28;20108;-75
2023/01/13 03:03:14;;;;;;;39.55;4.63;;;9.50;99.90;;;;;;5031693;28;20037;-75
2023/01/13 03:05:42;;;;;;;26.73;3.15;;;9.50;99.90;;;;;;5032781;28;20049;-75
2023/01/13 03:08:27;;;;;;;30.35;3.80;;;9.50;99.90;;;;;;5036096;28;20094;-75
2023/01/13 03:11:07;;;;;;;25.15;3.35;;;9.40;99.90;;;;;;5037268;28;20067;-75
2023/01/13 03:14:15;;;;;;;26.20;3.97;;;9.40;99.90;;;;;;5036773;28;20022;-75
2023/01/13 03:16:43;;;;;;;26.02;3.80;;;9.50;99.90;;;;;;5035708;28;20049;-74
2023/01/13 03:19:24;;;;;;;41.10;4.78;;;9.40;99.90;;;;;;5036690;28;20071;-75
2023/01/13 03:22:07;;;;;;;32.50;3.33;;;9.50;99.90;;;;;;5036395;28;20071;-75
2023/01/13 03:24:35;;;;;;;28.92;4.25;;;9.50;99.90;;;;;;5036118;28;20470;-74
2023/01/13 03:27:14;;;;;;;35.88;4.10;;;9.50;99.90;;;;;;5036101;28;20030;-74
2023/01/13 03:29:51;;;;;;;27.50;4.25;;;9.50;99.90;;;;;;5035516;28;20347;-75
2023/01/13 03:32:31;;;;;;;23.13;3.42;;;9.50;99.90;;;;;;5035194;28;20040;-75
2023/01/13 03:35:07;;;;;;;32.33;3.85;;;9.50;99.90;;;;;;5036402;28;20120;-75
2023/01/13 03:37:40;;;;;;;30.80;4.10;;;9.50;99.90;;;;;;5036061;28;20056;-75
2023/01/13 03:40:28;;;;;;;21.95;3.30;;;9.60;99.90;;;;;;5036052;28;20072;-75
2023/01/13 03:45:51;;;;;;;30.30;3.08;;;9.50;99.90;;;;;;5035773;28;20091;-74
2023/01/13 03:48:19;;;;;;;28.70;3.72;;;9.50;99.90;;;;;;5035655;28;20036;-74
2023/01/13 03:50:50;;;;;;;31.80;4.10;;;9.50;99.90;;;;;;5035465;28;20391;-74
2023/01/13 03:53:30;;;;;;;30.67;3.63;;;9.50;99.90;;;;;;5035798;28;20029;-74
2023/01/13 03:56:06;;;;;;;39.42;4.28;;;9.50;99.90;;;;;;5035900;28;20404;-75
2023/01/13 03:58:39;;;;;;;27.63;3.90;;;9.50;99.90;;;;;;5035969;28;20374;-75
2023/01/13 04:01:14;;;;;;;27.58;3.50;;;9.50;99.90;;;;;;5035591;28;20025;-75
2023/01/13 04:03:49;;;;;;;30.50;3.40;;;9.50;99.90;;;;;;5035966;28;20104;-75
2023/01/13 04:06:41;;;;;;;26.95;4.05;;;9.50;99.90;;;;;;5034318;28;20045;-74
2023/01/13 04:09:58;;;;;;;29.25;3.17;;;9.50;99.90;;;;;;5035560;28;20033;-74
2023/01/13 04:12:59;;;;;;;32.20;3.38;;;9.50;99.90;;;;;;5033783;28;20520;-74
2023/01/13 04:15:20;;;;;;;28.73;2.73;;;9.50;99.90;;;;;;5035151;28;20080;-75
2023/01/13 04:17:46;;;;;;;27.15;3.97;;;9.50;99.90;;;;;;5033324;28;20116;-75
2023/01/13 04:20:12;;;;;;;24.05;3.17;;;9.50;99.90;;;;;;5034066;28;20121;-75
2023/01/13 04:22:37;;;;;;;26.83;4.15;;;9.50;99.90;;;;;;5034383;28;20041;-75
2023/01/13 04:25:03;;;;;;;26.90;3.15;;;9.40;99.90;;;;;;5034978;28;20044;-75
2023/01/13 04:27:29;;;;;;;27.48;3.70;;;9.40;99.90;;;;;;5033996;28;20040;-75
2023/01/13 04:29:55;;;;;;;27.75;4.30;;;9.40;99.90;;;;;;5001879;28;20374;-74
2023/01/13 04:32:20;;;;;;;22.80;2.95;;;9.40;99.90;;;;;;5035158;28;20164;-74
2023/01/13 04:34:46;;;;;;;26.08;3.25;;;9.30;99.90;;;;;;5034687;28;20041;-74
2023/01/13 04:37:12;;;;;;;26.13;3.25;;;9.40;99.90;;;;;;5034779;28;20548;-75
2023/01/13 04:39:38;;;;;;;18.35;2.40;;;9.40;99.90;;;;;;5017657;28;20033;-75
2023/01/13 04:42:06;;;;;;;19.83;2.20;;;9.40;99.90;;;;;;5033728;28;20033;-75
2023/01/13 04:44:34;;;;;;;16.33;2.10;;;9.40;99.90;;;;;;5034731;28;20462;-75
2023/01/13 04:47:00;;;;;;;15.48;2.15;;;9.30;99.90;;;;;;5033858;28;20025;-75
2023/01/13 04:49:26;;;;;;;16.88;1.77;;;9.30;99.90;;;;;;5033468;28;20033;-76
2023/01/13 04:51:52;;;;;;;12.30;1.27;;;9.30;99.90;;;;;;5033570;28;20079;-75
2023/01/13 04:54:17;;;;;;;12.43;1.00;;;9.30;99.90;;;;;;5034648;28;20472;-76
2023/01/13 04:56:43;;;;;;;13.73;1.27;;;9.30;99.90;;;;;;5034080;28;20040;-75
2023/01/13 04:59:12;;;;;;;11.27;1.20;;;9.30;99.90;;;;;;5033877;28;20524;-75
2023/01/13 05:01:39;;;;;;;7.68;1.30;;;9.30;99.90;;;;;;5034277;28;20104;-75
2023/01/13 05:04:05;;;;;;;7.25;1.00;;;9.20;99.90;;;;;;5034217;28;20030;-75
2023/01/13 05:06:31;;;;;;;10.82;1.23;;;9.20;99.90;;;;;;5034421;28;20025;-75
2023/01/13 05:08:56;;;;;;;15.70;1.65;;;9.20;99.90;;;;;;5034127;28;20464;-75
2023/01/13 05:17:02;;;;;;;8.32;0.85;;;9.10;99.90;;;;;;5034647;28;20119;-74
2023/01/13 05:19:35;;;;;;;9.27;0.82;;;9.10;99.90;;;;;;5034302;28;20032;-75
2023/01/13 05:27:30;;;;;;;9.88;1.70;;;9.10;99.90;;;;;;5034470;28;20524;-75
2023/01/13 05:29:57;;;;;;;11.02;1.25;;;9.10;99.90;;;;;;5015982;28;20029;-75
2023/01/13 05:32:23;;;;;;;15.23;1.60;;;9.20;99.90;;;;;;5033623;28;20026;-74
2023/01/13 05:34:49;;;;;;;11.68;1.10;;;9.10;99.90;;;;;;5034150;28;20048;-74
2023/01/13 05:37:15;;;;;;;10.93;1.15;;;9.10;99.90;;;;;;5032343;28;20065;-74
2023/01/13 05:45:10;;;;;;;12.80;1.40;;;9.20;99.90;;;;;;5033014;28;20140;-75
2023/01/13 05:47:36;;;;;;;13.70;1.65;;;9.20;99.90;;;;;;5032907;28;20040;-75
2023/01/13 05:50:02;;;;;;;10.23;0.95;;;9.10;99.90;;;;;;5032309;28;20454;-75
2023/01/13 05:52:28;;;;;;;14.85;1.80;;;9.20;99.90;;;;;;5033604;28;20033;-75
2023/01/13 05:54:54;;;;;;;15.80;1.20;;;9.10;99.90;;;;;;5032806;28;20037;-75
2023/01/13 05:57:19;;;;;;;10.48;1.27;;;9.20;99.90;;;;;;5032242;28;20034;-75
2023/01/13 05:59:45;;;;;;;13.10;1.38;;;9.10;99.90;;;;;;5032346;28;20163;-74
2023/01/13 06:02:11;;;;;;;17.85;1.73;;;9.10;99.90;;;;;;5015849;28;20066;-75
2023/01/13 06:04:36;;;;;;;21.80;2.05;;;9.10;99.90;;;;;;5033584;28;20056;-75
2023/01/13 06:07:02;;;;;;;9.27;1.30;;;9.10;99.90;;;;;;5032322;28;20037;-75
2023/01/13 06:09:27;;;;;;;14.90;1.70;;;9.10;99.90;;;;;;5033437;28;20025;-75
2023/01/13 06:11:53;;;;;;;13.15;1.38;;;9.10;99.90;;;;;;5032307;28;20029;-75
2023/01/13 06:14:19;;;;;;;13.15;1.50;;;9.10;99.90;;;;;;5033184;28;20482;-75
2023/01/13 06:16:45;;;;;;;12.90;1.48;;;9.00;99.90;;;;;;5032005;28;20033;-75
2023/01/13 06:19:12;;;;;;;14.25;1.67;;;9.10;99.90;;;;;;5033140;28;20045;-74
2023/01/13 06:21:43;;;;;;;13.52;1.58;;;9.00;99.90;;;;;;5033445;28;20363;-75
2023/01/13 06:24:09;;;;;;;15.32;1.65;;;9.00;99.90;;;;;;5033379;28;20044;-74
2023/01/13 06:26:38;;;;;;;16.38;1.70;;;9.00;99.90;;;;;;5031896;28;20032;-74
2023/01/13 06:29:05;;;;;;;18.10;2.08;;;9.00;99.90;;;;;;5033554;28;20072;-74
2023/01/13 06:31:32;;;;;;;12.63;1.65;;;9.00;99.90;;;;;;5033496;28;20022;-73
2023/01/13 06:34:03;;;;;;;20.23;2.40;;;9.00;99.90;;;;;;5032931;28;20036;-74
2023/01/13 06:36:35;;;;;;;16.25;2.10;;;9.00;99.90;;;;;;5032200;28;20394;-74
2023/01/13 06:39:02;;;;;;;19.48;2.30;;;8.90;99.90;;;;;;5032863;28;20473;-73
2023/01/13 06:44:15;;;;;;;17.85;1.48;;;8.90;99.90;;;;;;5037084;28;20168;-74
2023/01/13 06:46:41;;;;;;;18.83;2.42;;;8.90;99.90;;;;;;5036423;28;20036;-73
2023/01/13 06:49:07;;;;;;;18.33;2.15;;;8.90;99.90;;;;;;5036990;28;20081;-74
2023/01/13 06:51:33;;;;;;;18.15;2.08;;;8.90;99.90;;;;;;5037252;28;20112;-74
2023/01/13 06:53:59;;;;;;;16.98;2.38;;;8.90;99.90;;;;;;5035942;28;20148;-74
2023/01/13 06:56:24;;;;;;;17.55;2.15;;;8.90;99.90;;;;;;5037079;28;20577;-74
2023/01/13 06:58:50;;;;;;;17.52;2.22;;;8.90;99.90;;;;;;5019285;28;20432;-74
2023/01/13 07:01:15;;;;;;;19.05;2.30;;;8.90;99.90;;;;;;5036621;28;20080;-74
2023/01/13 07:03:41;;;;;;;18.10;2.15;;;8.90;99.90;;;;;;5036795;28;20075;-74
2023/01/13 07:06:07;;;;;;;24.23;2.47;;;8.90;99.90;;;;;;5036377;28;20033;-78
2023/01/13 07:08:33;;;;;;;19.60;2.13;;;8.90;99.90;;;;;;5035460;28;20037;-79
2023/01/13 07:11:01;;;;;;;18.88;2.13;;;8.90;99.90;;;;;;5035530;28;20083;-79
2023/01/13 07:16:10;;;;;;;24.95;2.88;;;9.00;99.90;;;;;;5021230;28;20083;-79
2023/01/13 07:18:36;;;;;;;23.35;2.95;;;8.90;99.90;;;;;;5036558;28;20033;-81
2023/01/13 07:21:07;;;;;;;20.48;1.80;;;8.90;99.90;;;;;;5019056;28;20534;-80
2023/01/13 07:23:38;;;;;;;20.77;2.22;;;9.00;99.90;;;;;;5037087;28;20053;-78
2023/01/13 07:26:05;;;;;;;23.00;3.50;;;9.00;99.90;;;;;;5036568;28;20029;-78
2023/01/13 07:28:32;;;;;;;21.05;2.92;;;9.00;99.90;;;;;;5036351;28;20096;-77
2023/01/13 07:30:58;;;;;;;24.08;2.63;;;9.00;99.90;;;;;;5036070;28;20025;-75
2023/01/13 07:33:24;;;;;;;17.90;2.42;;;9.00;99.90;;;;;;5034785;28;20126;-75
2023/01/13 07:36:01;;;;;;;17.80;2.65;;;9.00;99.90;;;;;;5034424;28;20125;-75
2023/01/13 07:38:27;;;;;;;26.77;3.70;;;8.90;99.90;;;;;;5036091;28;20121;-74
2023/01/13 07:40:53;;;;;;;16.23;2.10;;;9.00;99.90;;;;;;5035657;28;20486;-74
2023/01/13 07:43:31;;;;;;;24.77;3.08;;;9.00;99.90;;;;;;5036194;28;20029;-73
2023/01/13 07:45:58;;;;;;;20.42;2.65;;;9.00;99.90;;;;;;5035372;28;20037;-77
2023/01/13 07:48:24;;;;;;;16.52;2.30;;;8.90;99.90;;;;;;5018233;28;20391;-79
2023/01/13 07:50:50;;;;;;;18.45;2.40;;;8.90;99.90;;;;;;5034720;28;20030;-78
2023/01/13 07:53:15;;;;;;;25.25;2.85;;;8.90;99.90;;;;;;5016729;28;20021;-78
2023/01/13 07:55:42;;;;;;;22.77;3.00;;;8.90;99.90;;;;;;5034455;28;20470;-78
2023/01/13 07:58:09;;;;;;;24.45;2.78;;;8.90;99.90;;;;;;5001849;28;20120;-77
2023/01/13 08:00:36;;;;;;;20.25;2.42;;;8.90;99.90;;;;;;5017294;28;20140;-78
2023/01/13 08:03:02;;;;;;;24.50;3.58;;;8.90;99.90;;;;;;5033704;28;20033;-73
2023/01/13 08:05:28;;;;;;;25.05;2.33;;;8.90;99.90;;;;;;5034706;28;20040;-78
2023/01/13 08:07:53;;;;;;;19.38;2.35;;;8.90;99.90;;;;;;5034154;28;20037;-78
2023/01/13 08:10:19;;;;;;;21.02;2.30;;;9.00;99.90;;;;;;5033660;28;20032;-73
2023/01/13 08:15:31;;;;;;;22.38;2.58;;;9.00;99.90;;;;;;5033476;28;20050;-73
2023/01/13 08:17:58;;;;;;;19.77;2.10;;;9.10;99.90;;;;;;5034705;28;20112;-76
2023/01/13 08:20:24;;;;;;;25.52;3.30;;;9.10;99.90;;;;;;5033442;28;20035;-75
2023/01/13 08:22:49;;;;;;;19.95;2.60;;;9.10;99.90;;;;;;5035101;28;20037;-75
2023/01/13 08:25:16;;;;;;;21.60;3.00;;;9.00;99.90;;;;;;5033299;28;20041;-77
2023/01/13 08:27:42;;;;;;;26.30;3.00;;;9.00;99.90;;;;;;5033264;28;20490;-76
2023/01/13 08:30:08;;;;;;;21.30;2.80;;;9.00;99.90;;;;;;5033148;28;20111;-78
2023/01/13 08:32:34;;;;;;;22.88;3.38;;;9.00;99.90;;;;;;5035585;28;20033;-79
2023/01/13 08:34:59;;;;;;;21.17;3.33;;;9.00;99.90;;;;;;5034836;28;20033;-78
2023/01/13 08:37:25;;;;;;;26.20;3.88;;;9.00;99.90;;;;;;5033111;28;20053;-77
2023/01/13 08:39:51;;;;;;;27.63;2.92;;;9.00;99.90;;;;;;5033322;28;20061;-76
2023/01/13 08:42:16;;;;;;;19.98;2.92;;;9.10;99.90;;;;;;5034348;28;20335;-74
2023/01/13 08:44:42;;;;;;;23.25;2.92;;;9.10;99.90;;;;;;5016212;28;20335;-74
2023/01/13 08:47:08;;;;;;;28.42;2.60;;;9.10;99.90;;;;;;5034113;28;20040;-74
2023/01/13 08:49:33;;;;;;;25.15;3.13;;;9.10;99.90;;;;;;5000461;28;20034;-74
2023/01/13 08:51:59;;;;;;;18.70;2.40;;;9.10;99.90;;;;;;5032698;28;20056;-74
2023/01/13 08:54:25;;;;;;;21.67;3.38;;;9.10;99.90;;;;;;5034262;28;20060;-74
2023/01/13 08:56:50;;;;;;;22.88;3.65;;;9.10;99.90;;;;;;5033791;28;20061;-74
2023/01/13 08:59:18;;;;;;;26.05;3.42;;;9.10;99.90;;;;;;5032465;28;20033;-74
2023/01/13 09:01:44;;;;;;;25.58;3.45;;;9.10;99.90;;;;;;5033083;28;20034;-74
2023/01/13 09:04:16;;;;;;;23.17;2.55;;;9.10;99.90;;;;;;5033820;28;20028;-73
2023/01/13 09:06:42;;;;;;;22.85;3.30;;;9.10;99.90;;;;;;5033314;28;20068;-73
2023/01/13 09:09:08;;;;;;;24.42;3.58;;;9.20;99.90;;;;;;5034190;28;20033;-73
2023/01/13 09:14:28;;;;;;;22.92;2.58;;;9.10;99.90;;;;;;5033486;28;20045;-73
2023/01/13 09:16:54;;;;;;;21.17;2.70;;;9.20;99.90;;;;;;5032510;28;20116;-73
2023/01/13 09:19:20;;;;;;;16.73;2.35;;;9.10;99.90;;;;;;5034126;28;20120;-72
2023/01/13 09:21:45;;;;;;;29.63;2.80;;;9.10;99.90;;;;;;5033430;28;20478;-73
2023/01/13 09:24:11;;;;;;;28.67;3.35;;;9.10;99.90;;;;;;5032317;28;20033;-74
2023/01/13 09:26:37;;;;;;;35.65;4.47;;;9.10;99.90;;;;;;5032339;28;20040;-74
2023/01/13 09:29:03;;;;;;;27.77;3.25;;;9.00;99.90;;;;;;5033791;28;20052;-74
2023/01/13 09:31:33;;;;;;;20.85;2.97;;;9.10;99.90;;;;;;5033858;28;20109;-74
2023/01/13 09:36:44;;;;;;;20.13;3.30;;;9.10;99.90;;;;;;5032908;28;20064;-73
2023/01/13 09:39:10;;;;;;;20.38;2.38;;;9.20;99.90;;;;;;5015885;28;20034;-74
2023/01/13 09:45:03;;;;;;;32.08;4.50;;;9.10;99.90;;;;;;5034037;28;20402;-74
2023/01/13 09:47:55;;;;;;;31.15;3.42;;;9.10;99.90;;;;;;5033474;28;20532;-74
2023/01/13 09:50:37;;;;;;;28.38;3.40;;;9.10;99.90;;;;;;5031367;28;20087;-74
2023/01/13 09:53:06;;;;;;;31.83;3.17;;;9.10;99.90;;;;;;5032652;28;20026;-74
2023/01/13 09:55:35;;;;;;;29.63;3.35;;;9.10;99.90;;;;;;5032431;28;20037;-75
2023/01/13 09:58:21;;;;;;;23.55;3.50;;;9.00;99.90;;;;;;5032241;28;20061;-74
2023/01/13 10:01:24;;;;;;;25.27;3.55;;;9.00;99.90;;;;;;5031583;28;20486;-75
2023/01/13 10:03:50;;;;;;;26.63;3.03;;;8.90;99.90;;;;;;5032764;28;20048;-75
2023/01/13 10:06:37;;;;;;;34.65;4.80;;;8.90;99.90;;;;;;5031536;28;20030;-74
2023/01/13 10:09:05;;;;;;;24.27;3.78;;;8.90;99.90;;;;;;5032661;28;20104;-75
2023/01/13 10:14:40;;;;;;;30.67;4.00;;;8.80;99.90;;;;;;5032873;28;20083;-75
2023/01/13 10:17:19;;;;;;;24.42;3.10;;;8.80;99.90;;;;;;5035111;28;20086;-75
2023/01/13 10:19:54;;;;;;;24.92;3.10;;;8.70;99.90;;;;;;5035837;28;20022;-75
2023/01/13 10:22:35;;;;;;;21.63;2.92;;;8.70;99.90;;;;;;5035903;28;20331;-75
2023/01/13 10:25:19;;;;;;;29.92;3.33;;;8.70;99.90;;;;;;5036128;28;20049;-74
2023/01/13 10:27:48;;;;;;;20.45;3.03;;;8.70;99.90;;;;;;5036619;28;20030;-75
2023/01/13 10:30:20;;;;;;;27.23;3.22;;;8.70;99.90;;;;;;5036175;28;20442;-75
2023/01/13 10:32:56;;;;;;;28.05;3.15;;;8.70;99.90;;;;;;5036707;28;20037;-75
2023/01/13 10:35:48;;;;;;;24.98;3.10;;;8.70;99.90;;;;;;5036801;28;20029;-72
2023/01/13 10:38:21;;;;;;;30.25;3.85;;;8.70;99.90;;;;;;5035744;28;20049;-73
2023/01/13 10:40:59;;;;;;;21.40;2.90;;;8.70;99.90;;;;;;5036638;28;20474;-73
2023/01/13 10:43:26;;;;;;;25.55;3.97;;;8.80;99.90;;;;;;5035556;28;20038;-75
2023/01/13 10:46:01;;;;;;;24.63;3.35;;;8.70;99.90;;;;;;5035174;28;20146;-76
2023/01/13 10:48:35;;;;;;;25.30;3.17;;;8.70;99.90;;;;;;5037250;28;20032;-75
2023/01/13 10:51:21;;;;;;;26.42;3.53;;;8.80;99.90;;;;;;5036112;28;20030;-74
2023/01/13 10:54:24;;;;;;;31.63;2.70;;;8.80;99.90;;;;;;5036262;28;20426;-74
2023/01/13 10:57:19;;;;;;;27.33;3.15;;;8.80;99.90;;;;;;5033599;28;20064;-75
2023/01/13 10:59:46;;;;;;;20.75;3.55;;;8.90;99.90;;;;;;5035911;28;20022;-75
2023/01/13 11:02:15;;;;;;;25.95;2.50;;;8.90;99.90;;;;;;5035896;28;20030;-75
2023/01/13 11:04:53;;;;;;;27.88;3.40;;;8.90;99.90;;;;;;5034929;28;20033;-75
2023/01/13 11:07:27;;;;;;;26.50;3.50;;;8.90;99.90;;;;;;5035093;28;20025;-75
2023/01/13 11:10:13;;;;;;;28.83;2.75;;;9.00;99.90;;;;;;5034661;28;20022;-74
2023/01/13 11:13:03;;;;;;;21.67;3.10;;;8.90;99.90;;;;;;5036438;28;20072;-74
2023/01/13 11:15:56;;;;;;;25.90;3.35;;;8.90;99.90;;;;;;5036030;28;20030;-75
2023/01/13 11:18:39;;;;;;;28.55;4.00;;;8.90;99.90;;;;;;5035619;28;20028;-73
2023/01/13 11:21:19;;;;;;;31.23;4.22;;;8.90;99.90;;;;;;5035565;28;20104;-73
2023/01/13 11:23:53;;;;;;;25.73;3.35;;;8.80;99.90;;;;;;5035474;28;20080;-72
2023/01/13 11:26:39;;;;;;;24.35;3.58;;;8.80;99.90;;;;;;5036397;28;20029;-75
2023/01/13 11:29:14;;;;;;;27.77;3.72;;;8.80;99.90;;;;;;5034655;28;20026;-74
2023/01/13 11:31:50;;;;;;;26.58;4.13;;;8.80;99.90;;;;;;5035609;28;20474;-73
2023/01/13 11:34:34;;;;;;;29.88;4.13;;;8.80;99.90;;;;;;5035287;28;20022;-74
2023/01/13 11:37:06;;;;;;;30.13;4.07;;;8.90;99.90;;;;;;5035184;28;20068;-74
2023/01/13 11:39:44;;;;;;;27.73;3.28;;;8.90;99.90;;;;;;5035300;28;20470;-74
2023/01/13 11:42:48;;;;;;;31.55;4.00;;;9.00;99.90;;;;;;5035127;28;20036;-74
2023/01/13 11:45:37;;;;;;;22.25;3.97;;;9.00;99.90;;;;;;5035561;28;20053;-74
2023/01/13 11:48:03;;;;;;;29.65;4.28;;;9.00;99.90;;;;;;5033848;28;20052;-74
2023/01/13 11:50:43;;;;;;;20.88;2.80;;;9.00;99.90;;;;;;5017416;28;20051;-74
2023/01/13 11:53:17;;;;;;;19.83;2.53;;;9.00;99.90;;;;;;5036032;28;20033;-74
2023/01/13 11:56:23;;;;;;;20.88;2.95;;;9.00;99.90;;;;;;5034792;28;20056;-74
2023/01/13 11:59:00;;;;;;;24.35;2.63;;;9.00;99.90;;;;;;5034727;28;20033;-73
2023/01/13 12:01:53;;;;;;;17.60;2.38;;;9.10;99.90;;;;;;5034494;28;20466;-74
2023/01/13 12:04:24;;;;;;;21.05;3.10;;;9.10;99.90;;;;;;5035491;28;20525;-73
2023/01/13 12:07:11;;;;;;;33.67;4.05;;;9.10;99.90;;;;;;5035355;28;20034;-74
2023/01/13 12:09:53;;;;;;;24.98;2.95;;;9.10;99.90;;;;;;5035467;28;20108;-74
2023/01/13 12:12:47;;;;;;;15.88;2.50;;;9.10;99.90;;;;;;5034288;28;20112;-74
2023/01/13 12:15:19;;;;;;;28.20;2.92;;;9.10;99.90;;;;;;5034018;28;20038;-74
2023/01/13 12:17:44;;;;;;;27.83;3.97;;;9.20;99.90;;;;;;5034994;28;20026;-74
2023/01/13 12:20:42;;;;;;;25.08;3.22;;;9.20;99.90;;;;;;5034203;28;20021;-74
2023/01/13 12:23:35;;;;;;;22.48;2.47;;;9.20;99.90;;;;;;5034991;28;20060;-74
2023/01/13 12:26:10;;;;;;;27.23;2.47;;;9.20;99.90;;;;;;5034836;28;20056;-74
2023/01/13 12:28:59;;;;;;;20.38;2.95;;;9.20;99.90;;;;;;5034885;28;20026;-74
2023/01/13 12:31:26;;;;;;;20.23;2.92;;;9.10;99.90;;;;;;5034629;28;20056;-74
2023/01/13 12:34:21;;;;;;;24.75;3.17;;;9.20;99.90;;;;;;5032882;28;20458;-74
2023/01/13 12:37:02;;;;;;;23.92;3.67;;;9.20;99.90;;;;;;5032145;28;20041;-74
2023/01/13 12:39:44;;;;;;;23.48;2.35;;;9.20;99.90;;;;;;5033951;28;20025;-74
2023/01/13 12:45:31;;;;;;;26.30;3.42;;;9.20;99.90;;;;;;5033521;28;20123;-75
2023/01/13 12:47:58;;;;;;;22.20;2.72;;;9.20;99.90;;;;;;5034038;28;20509;-74
2023/01/13 12:50:24;;;;;;;24.15;2.70;;;9.20;99.90;;;;;;5032597;28;20128;-74
2023/01/13 12:52:54;;;;;;;20.55;3.35;;;9.20;99.90;;;;;;5032524;28;20057;-75
2023/01/13 12:55:35;;;;;;;19.42;2.65;;;9.20;99.90;;;;;;5034190;28;20037;-75
2023/01/13 12:58:03;;;;;;;23.65;2.88;;;9.20;99.90;;;;;;5032809;28;20040;-80
2023/01/13 13:00:38;;;;;;;23.85;3.88;;;9.10;99.90;;;;;;5032939;28;20052;-78
2023/01/13 13:03:10;;;;;;;25.38;3.03;;;9.10;99.90;;;;;;5031465;28;20052;-79
2023/01/13 13:05:49;;;;;;;19.58;2.65;;;9.10;99.90;;;;;;5033816;28;20033;-77
2023/01/13 13:08:47;;;;;;;24.95;3.13;;;9.00;99.90;;;;;;5031960;28;20025;-79
2023/01/13 13:14:03;;;;;;;24.58;3.50;;;9.10;99.90;;;;;;5033719;28;20052;-78
2023/01/13 13:16:29;;;;;;;21.58;3.25;;;9.10;99.90;;;;;;5033517;28;20032;-79
2023/01/13 13:19:17;;;;;;;22.52;2.72;;;9.10;99.90;;;;;;5032175;28;20116;-79
2023/01/13 13:22:15;;;;;;;21.45;2.42;;;9.20;99.90;;;;;;5033072;28;20082;-77
2023/01/13 13:24:50;;;;;;;23.05;2.90;;;9.20;99.90;;;;;;5031849;28;20033;-77
2023/01/13 13:27:21;;;;;;;20.08;2.33;;;9.20;99.90;;;;;;5032645;28;20025;-79
2023/01/13 13:29:47;;;;;;;23.60;2.70;;;9.20;99.90;;;;;;5033500;28;20087;-79
2023/01/13 13:32:30;;;;;;;18.80;3.03;;;9.20;99.90;;;;;;5032167;28;20132;-78
2023/01/13 13:34:56;;;;;;;18.67;2.90;;;9.20;99.90;;;;;;5033466;28;20072;-78
2023/01/13 13:37:27;;;;;;;29.42;3.90;;;9.30;99.90;;;;;;5032547;28;20072;-75
2023/01/13 13:48:29;;;;;;;20.95;2.90;;;9.40;99.90;;;;;;5031865;28;20087;-74
2023/01/13 13:51:02;;;;;;;18.73;2.53;;;9.40;99.90;;;;;;5032895;28;20033;-74
2023/01/13 13:53:41;;;;;;;23.08;2.70;;;9.30;99.90;;;;;;5032144;28;20406;-73
2023/01/13 13:56:17;;;;;;;16.20;2.25;;;9.40;99.90;;;;;;5031998;28;20044;-74
2023/01/13 13:58:45;;;;;;;18.13;1.85;;;9.40;99.90;;;;;;5033322;28;20025;-74
2023/01/13 14:01:31;;;;;;;15.65;1.80;;;9.40;99.90;;;;;;5032281;28;20474;-75
2023/01/13 14:04:03;;;;;;;18.08;2.30;;;9.50;99.90;;;;;;5033004;28;20553;-74
2023/01/13 14:06:31;;;;;;;23.73;2.20;;;9.50;99.90;;;;;;5031653;28;20029;-74
2023/01/13 14:08:57;;;;;;;20.38;2.15;;;9.50;99.90;;;;;;5015925;28;20037;-78
2023/01/13 14:11:27;;;;;;;15.57;2.30;;;9.50;99.90;;;;;;5031963;28;20029;-78
2023/01/13 14:14:15;;;;;;;19.02;2.50;;;9.50;99.90;;;;;;5033296;28;20105;-78